createdAt,value
2022-11-24T00:04:39.712Z,2.29
2022-11-24T00:10:06.672Z,2.30
2022-11-24T00:15:31.639Z,2.29
2022-11-24T00:20:55.684Z,2.28
2022-11-24T00:26:24.767Z,2.27
2022-11-24T00:31:50.654Z,2.22
2022-11-24T00:37:15.646Z,2.19
2022-11-24T00:42:43.648Z,2.16
2022-11-24T00:48:08.667Z,2.17
2022-11-24T00:53:32.711Z,2.15
2022-11-24T00:59:00.632Z,2.17
2022-11-24T01:04:24.682Z,2.19
2022-11-24T01:09:52.650Z,2.24
2022-11-24T01:15:21.731Z,2.27
2022-11-24T01:20:46.751Z,2.33
2022-11-24T01:26:10.726Z,2.39
2022-11-24T01:31:39.657Z,2.43
2022-11-24T01:37:03.660Z,2.49
2022-11-24T01:42:28.767Z,2.54
2022-11-24T01:47:56.669Z,2.67
2022-11-24T01:53:23.693Z,2.74
2022-11-24T01:58:49.651Z,2.81
2022-11-24T02:04:21.685Z,2.91
2022-11-24T02:09:58.735Z,2.98
2022-11-24T02:15:24.671Z,3.01
2022-11-24T02:20:51.696Z,3.05
2022-11-24T02:26:23.741Z,3.06
2022-11-24T02:31:50.777Z,3.07
2022-11-24T02:37:16.739Z,3.08
2022-11-24T02:42:43.676Z,3.10
2022-11-24T02:48:11.702Z,3.11
2022-11-24T02:53:35.731Z,3.12
2022-11-24T02:59:00.786Z,3.11
2022-11-24T03:04:28.771Z,3.08
2022-11-24T03:09:53.717Z,3.09
2022-11-24T03:15:18.715Z,3.11
2022-11-24T03:20:46.715Z,3.12
2022-11-24T03:26:10.704Z,3.15
2022-11-24T03:31:35.780Z,3.17
2022-11-24T03:37:02.726Z,3.21
2022-11-24T03:42:27.719Z,3.22
2022-11-24T03:47:51.726Z,3.26
2022-11-24T03:53:19.790Z,3.28
2022-11-24T03:58:44.715Z,3.30
2022-11-24T04:04:15.747Z,3.32
2022-11-24T04:09:49.732Z,3.33
2022-11-24T04:15:15.715Z,3.35
2022-11-24T04:20:42.768Z,3.36
2022-11-24T04:26:10.723Z,3.38
2022-11-24T04:31:34.797Z,3.38
2022-11-24T04:36:59.755Z,3.43
2022-11-24T04:42:26.758Z,3.43
2022-11-24T04:47:51.732Z,3.44
2022-11-24T04:53:17.006Z,3.44
2022-11-24T04:58:45.824Z,3.46
2022-11-24T05:04:10.786Z,3.48
2022-11-24T05:10:01.746Z,3.52
2022-11-24T05:15:29.775Z,3.54
2022-11-24T05:20:53.757Z,3.59
2022-11-24T05:26:18.718Z,3.62
2022-11-24T05:31:45.769Z,3.64
2022-11-24T05:37:11.727Z,3.67
2022-11-24T05:42:48.826Z,3.69
2022-11-24T05:48:17.773Z,3.71
2022-11-24T05:53:42.760Z,3.74
2022-11-24T05:59:10.046Z,3.76
2022-11-24T06:04:37.093Z,3.77
2022-11-24T06:10:07.734Z,3.79
2022-11-24T06:15:32.930Z,3.79
2022-11-24T06:21:10.285Z,3.79
2022-11-24T06:26:36.060Z,3.79
2022-11-24T06:31:59.828Z,3.79
2022-11-24T06:37:27.754Z,3.81
2022-11-24T06:42:52.756Z,3.83
2022-11-24T06:48:17.819Z,3.84
2022-11-24T06:53:46.778Z,3.87
2022-11-24T06:59:11.804Z,3.92
2022-11-24T07:04:36.006Z,3.95
2022-11-24T07:10:09.784Z,3.97
2022-11-24T07:15:34.797Z,3.98
2022-11-24T07:20:59.801Z,4.01
2022-11-24T07:26:27.780Z,4.04
2022-11-24T07:31:52.845Z,4.06
2022-11-24T07:37:17.780Z,4.11
2022-11-24T07:42:44.798Z,4.14
2022-11-24T07:48:09.795Z,4.19
2022-11-24T07:53:33.908Z,4.26
2022-11-24T07:59:01.780Z,4.30
2022-11-24T08:04:25.808Z,4.37
2022-11-24T08:09:56.777Z,4.41
2022-11-24T08:15:25.008Z,4.48
2022-11-24T08:20:49.896Z,4.57
2022-11-24T08:26:17.827Z,4.68
2022-11-24T08:31:44.880Z,4.77
2022-11-24T08:37:09.801Z,4.87
2022-11-24T08:42:33.805Z,4.98
2022-11-24T08:48:04.860Z,5.08
2022-11-24T08:53:28.838Z,5.17
2022-11-24T08:58:53.890Z,5.28
2022-11-24T09:04:20.912Z,5.38
2022-11-24T09:09:51.838Z,5.50
2022-11-24T09:15:17.848Z,5.62
2022-11-24T09:20:44.810Z,5.73
2022-11-24T09:26:13.838Z,5.83
2022-11-24T09:31:40.854Z,5.95
2022-11-24T09:37:08.857Z,6.06
2022-11-24T09:42:46.030Z,6.14
2022-11-24T09:48:21.845Z,6.24
2022-11-24T09:53:53.826Z,6.30
2022-11-24T09:59:25.841Z,6.37
2022-11-24T10:04:56.872Z,6.46
2022-11-24T10:10:33.871Z,6.57
2022-11-24T10:16:07.959Z,6.72
2022-11-24T10:21:56.893Z,6.75
2022-11-24T10:27:27.853Z,6.80
2022-11-24T10:32:57.684Z,6.93
2022-11-24T10:38:41.859Z,7.05
2022-11-24T10:44:08.850Z,7.18
2022-11-24T10:49:37.227Z,7.28
2022-11-24T10:55:13.875Z,7.34
2022-11-24T11:00:43.893Z,7.43
2022-11-24T11:06:10.901Z,7.52
2022-11-24T11:11:38.890Z,7.60
2022-11-24T11:17:11.898Z,7.68
2022-11-24T11:22:38.968Z,7.74
2022-11-24T11:28:08.610Z,7.77
2022-11-24T11:39:36.937Z,7.80
2022-11-24T11:45:06.896Z,7.89
2022-11-24T11:51:06.569Z,7.94
2022-11-24T11:56:34.891Z,7.96
2022-11-24T12:02:27.009Z,8.02
2022-11-24T12:08:10.069Z,7.99
2022-11-24T12:13:58.921Z,8.09
2022-11-24T12:19:37.094Z,8.11
2022-11-24T12:25:11.952Z,8.13
2022-11-24T12:30:46.970Z,8.20
2022-11-24T12:36:17.915Z,8.21
2022-11-24T12:42:03.900Z,8.24
2022-11-24T12:47:33.927Z,8.35
2022-11-24T12:53:06.921Z,8.40
2022-11-24T12:58:46.016Z,8.50
2022-11-24T13:04:23.088Z,8.51
2022-11-24T13:09:46.952Z,8.59
2022-11-24T13:15:45.277Z,8.52
2022-11-24T13:21:10.947Z,8.61
2022-11-24T13:26:41.707Z,8.61
2022-11-24T13:32:08.968Z,8.67
2022-11-24T13:37:57.957Z,8.52
2022-11-24T13:43:29.950Z,8.47
2022-11-24T13:49:17.060Z,8.40
2022-11-24T13:54:42.967Z,8.38
2022-11-24T14:00:06.969Z,8.34
2022-11-24T14:05:46.942Z,8.19
2022-11-24T14:11:27.968Z,8.14
2022-11-24T14:16:52.980Z,8.15
2022-11-24T14:22:19.988Z,8.11
2022-11-24T14:27:46.972Z,8.02
2022-11-24T14:33:13.989Z,7.92
2022-11-24T14:38:48.043Z,7.84
2022-11-24T14:44:15.965Z,7.85
2022-11-24T14:49:40.099Z,7.80
2022-11-24T14:55:22.543Z,7.76
2022-11-24T15:00:50.048Z,7.70
2022-11-24T15:06:24.998Z,7.61
2022-11-24T15:11:52.018Z,7.56
2022-11-24T15:17:17.114Z,7.47
2022-11-24T15:22:51.986Z,7.39
2022-11-24T15:28:21.013Z,7.34
2022-11-24T15:33:46.029Z,7.28
2022-11-24T15:39:11.013Z,7.23
2022-11-24T15:44:39.108Z,7.18
2022-11-24T15:50:04.026Z,7.11
2022-11-24T15:55:33.049Z,7.13
2022-11-24T16:01:01.057Z,7.12
2022-11-24T16:06:29.059Z,7.13
2022-11-24T16:11:54.017Z,7.11
2022-11-24T16:17:21.032Z,7.08
2022-11-24T16:22:46.040Z,7.02
2022-11-24T16:28:10.043Z,6.93
2022-11-24T16:33:38.047Z,6.84
2022-11-24T16:39:02.034Z,6.78
2022-11-24T16:44:27.049Z,6.69
2022-11-24T16:49:54.046Z,6.62
2022-11-24T16:55:21.077Z,6.59
2022-11-24T17:00:45.230Z,6.56
2022-11-24T17:06:14.157Z,6.53
2022-11-24T17:11:41.209Z,6.50
2022-11-24T17:17:06.077Z,6.51
2022-11-24T17:22:33.079Z,6.50
2022-11-24T17:27:58.037Z,6.50
2022-11-24T17:33:24.073Z,6.52
2022-11-24T17:38:52.113Z,6.55
2022-11-24T17:44:17.123Z,6.54
2022-11-24T17:49:42.101Z,6.53
2022-11-24T17:55:09.045Z,6.56
2022-11-24T18:00:34.109Z,6.55
2022-11-24T18:05:59.127Z,6.51
2022-11-24T18:11:34.074Z,6.53
2022-11-24T18:16:59.175Z,6.50
2022-11-24T18:22:49.932Z,6.50
2022-11-24T18:28:13.157Z,6.48
2022-11-24T18:33:37.147Z,6.48
2022-11-24T18:39:02.111Z,6.45
2022-11-24T18:44:29.084Z,6.42
2022-11-24T18:49:54.246Z,6.42
2022-11-24T18:55:18.173Z,6.40
2022-11-24T19:00:46.110Z,6.35
2022-11-24T19:06:10.374Z,6.35
2022-11-24T19:11:44.108Z,6.36
2022-11-24T19:17:14.120Z,6.36
2022-11-24T19:22:38.153Z,6.34
2022-11-24T19:28:03.161Z,6.30
2022-11-24T19:33:31.092Z,6.27
2022-11-24T19:39:00.220Z,6.13
2022-11-24T19:44:26.137Z,6.11
2022-11-24T19:49:54.124Z,6.00
2022-11-24T19:55:18.144Z,5.96
2022-11-24T20:00:43.119Z,5.97
2022-11-24T20:06:14.134Z,5.96
2022-11-24T20:11:45.154Z,5.96
2022-11-24T20:17:11.307Z,5.94
2022-11-24T20:22:38.267Z,5.89
2022-11-24T20:28:03.138Z,5.86
2022-11-24T20:33:27.174Z,5.83
2022-11-24T20:38:55.168Z,5.82
2022-11-24T20:44:22.338Z,5.83
2022-11-24T20:49:47.162Z,5.79
2022-11-24T20:55:14.220Z,5.77
2022-11-24T21:00:39.192Z,5.77
2022-11-24T21:06:10.173Z,5.76
2022-11-24T21:11:44.165Z,5.74
2022-11-24T21:17:09.336Z,5.72
2022-11-24T21:22:33.150Z,5.70
2022-11-24T21:28:01.187Z,5.67
2022-11-24T21:33:26.171Z,5.67
2022-11-24T21:38:52.246Z,5.68
2022-11-24T21:44:20.219Z,5.69
2022-11-24T21:49:45.158Z,5.66
2022-11-24T21:55:10.268Z,5.67
2022-11-24T22:00:38.199Z,5.66
2022-11-24T22:06:08.193Z,5.65
2022-11-24T22:11:41.237Z,5.67
2022-11-24T22:17:09.214Z,5.66
2022-11-24T22:22:33.182Z,5.65
2022-11-24T22:27:58.193Z,5.66
2022-11-24T22:33:26.412Z,5.68
2022-11-24T22:38:52.216Z,5.69
2022-11-24T22:44:16.324Z,5.70
2022-11-24T22:49:44.229Z,5.71
2022-11-24T22:55:08.212Z,5.71
2022-11-24T23:00:33.336Z,5.70
2022-11-24T23:06:00.212Z,5.67
2022-11-24T23:11:37.768Z,5.64
2022-11-24T23:17:03.208Z,5.61
2022-11-24T23:22:31.242Z,5.61
2022-11-24T23:27:56.252Z,5.60
2022-11-24T23:33:20.230Z,5.51
2022-11-24T23:38:48.231Z,5.44
2022-11-24T23:44:12.330Z,5.38
2022-11-24T23:49:39.223Z,5.32
2022-11-24T23:55:07.249Z,5.23
